Zeus — V2OR — position and weather

sailwx.info

Track history (hours):
 
Tides and Currents Weather Stations Pressure Air Temp Water Temp Dewpoint Dewpoint Depression Visibility Wind Speed Wind Dir Waves Ship Positions

Zeus

Last reported at 2014-Sep-21 17:32 UTC. Time now 2014-Sep-21 22:10 UTC.
Position N 59°28' E 005°13'.

Length 90 m; draft 3.8 m.

Type: Cargo ship. MMSI: 304011025.

Date/timePositionNaut miles runAvg speedWind from/ knotsBaromVisibWave heightAir tempDewpointWater temp
2014-Sep-21 17:32N 59°28' E 005°13'10 9.6
2014-Sep-21 16:33N 59°19' E 005°20'8 7.8
2014-Sep-21 15:33N 59°11' E 005°21'5 5.3
2014-Sep-21 14:33N 59°06' E 005°22'5 5.5
2014-Sep-21 13:33N 59°03' E 005°13'4 4.1
2014-Sep-21 12:33N 58°59' E 005°11'4 4.1
2014-Sep-21 11:33N 58°55' E 005°11'4 3.8
2014-Sep-21 10:33N 58°51' E 005°12'5 4.5
2014-Sep-21 09:33N 58°46' E 005°13'41 4.4
2014-Sep-21 00:19N 58°11' E 005°51'5 6.3
2014-Sep-20 23:33N 58°07' E 005°57'6 5.7
2014-Sep-20 22:33N 58°03' E 006°04'115 8.0
2014-Sep-20 08:10N 57°48' E 009°39'6 9.3
2014-Sep-20 07:33N 57°48' E 009°49'1010.0
2014-Sep-20 06:33N 57°48' E 010°08'1010.5
2014-Sep-20 05:33N 57°48' E 010°28'10 9.6
2014-Sep-20 04:33N 57°48' E 010°46'9 8.7
2014-Sep-20 03:33N 57°43' E 010°58'8 8.4
2014-Sep-20 02:33N 57°37' E 011°09'9 8.8
2014-Sep-20 01:33N 57°31' E 011°21'9 8.8
2014-Sep-20 00:33N 57°23' E 011°30'9 9.4
2014-Sep-19 23:33N 57°15' E 011°36'9 9.1
2014-Sep-19 22:33N 57°06' E 011°42'9 9.0
2014-Sep-19 21:32N 56°57' E 011°47'9 8.7
2014-Sep-19 20:33N 56°49' E 011°53'8 8.4
2014-Sep-19 19:33N 56°42' E 011°58'8 8.2
2014-Sep-19 18:33N 56°33' E 012°00'8 8.2
2014-Sep-19 17:33N 56°25' E 012°03'7 7.5
2014-Sep-19 16:34N 56°18' E 012°06'8 7.9
2014-Sep-19 15:33N 56°13' E 012°18'8 8.0
2014-Sep-19 14:33N 56°09' E 012°29'9 8.6
2014-Sep-19 13:33N 56°03' E 012°40'9 9.0
2014-Sep-19 12:33N 55°54' E 012°45'10 9.8
2014-Sep-19 11:33N 55°44' E 012°41'9 9.2
2014-Sep-19 10:33N 55°35' E 012°42'9 9.1
2014-Sep-19 09:34N 55°26' E 012°42'9 8.6
2014-Sep-19 08:33N 55°18' E 012°45'10 9.7
2014-Sep-19 07:33N 55°12' E 012°59'1010.0
2014-Sep-19 06:33N 55°05' E 013°11'1010.0
2014-Sep-19 05:33N 54°57' E 013°22'10 9.8
2014-Sep-19 04:33N 54°49' E 013°32'10 9.8
2014-Sep-19 03:33N 54°40' E 013°40'1010.1
2014-Sep-19 02:33N 54°31' E 013°48'1010.1
2014-Sep-19 01:34N 54°23' E 013°56'1010.1
2014-Sep-19 00:33N 54°13' E 014°04'1010.0
2014-Sep-18 23:33N 54°04' E 014°11'9 9.2
2014-Sep-18 22:33N 53°56' E 014°17'6 6.1
2014-Sep-18 21:33N 53°50' E 014°19'10 9.8
2014-Sep-18 20:33N 53°42' E 014°29'9 9.5
2014-Sep-18 19:33N 53°33' E 014°36'5 4.6
2014-Sep-18 18:31N 53°29' E 014°37'0 0.0
2014-Sep-18 17:31N 53°29' E 014°37'0 0.0
2014-Sep-18 16:31N 53°29' E 014°37'0 0.0
2014-Sep-18 15:31N 53°29' E 014°37'0 0.0
2014-Sep-18 14:31N 53°29' E 014°37'0 0.0
2014-Sep-18 13:31N 53°29' E 014°37'0 0.0
2014-Sep-18 12:31N 53°29' E 014°37'0 0.0
2014-Sep-18 11:31N 53°29' E 014°37'0 0.0
2014-Sep-18 10:31N 53°29' E 014°37'0 0.0
2014-Sep-18 09:31N 53°29' E 014°37'0 0.0
2014-Sep-18 08:31N 53°29' E 014°37'0 0.0
2014-Sep-18 07:31N 53°29' E 014°37'4 4.2
2014-Sep-18 06:33N 53°33' E 014°37'9 8.9
2014-Sep-18 05:33N 53°41' E 014°31'1010.1
2014-Sep-18 04:33N 53°49' E 014°20'6 6.4
2014-Sep-18 03:33N 53°54' E 014°16'9 8.6
2014-Sep-18 02:33N 54°03' E 014°13'1010.4
2014-Sep-18 01:33N 54°12' E 014°04'1010.3
2014-Sep-18 00:33N 54°21' E 013°56'1410.3
2014-Sep-17 23:10N 54°34' E 013°44'710.2
2014-Sep-17 22:29N 54°40' E 013°38'1010.4
2014-Sep-17 21:33N 54°48' E 013°29'1010.4
2014-Sep-17 20:33N 54°57' E 013°20'1110.2
2014-Sep-17 19:32N 55°05' E 013°08'11 9.9
2014-Sep-17 18:25N 55°13' E 012°54'8 9.7
2014-Sep-17 17:33N 55°17' E 012°42'9 9.1
2014-Sep-17 16:33N 55°26' E 012°39'10 9.6
2014-Sep-17 15:33N 55°35' E 012°42'8 7.6
2014-Sep-17 14:33N 55°43' E 012°41'9 9.5
2014-Sep-17 13:33N 55°52' E 012°39'9 9.3
2014-Sep-17 12:33N 56°02' E 012°38'7 7.1
2014-Sep-17 11:33N 56°07' E 012°30'10 9.6
2014-Sep-17 10:33N 56°12' E 012°16'1010.1
2014-Sep-17 09:33N 56°19' E 012°02'1110.1
2014-Sep-17 08:25N 56°30' E 011°58'9 9.6
2014-Sep-17 07:31N 56°39' E 011°55'9 9.3
2014-Sep-17 06:32N 56°47' E 011°50'10 9.8
2014-Sep-17 05:33N 56°57' E 011°44'9 9.4
2014-Sep-17 04:33N 57°05' E 011°37'9 9.3
2014-Sep-17 03:33N 57°14' E 011°31'10 9.7
2014-Sep-17 02:33N 57°23' E 011°25'9 9.3
2014-Sep-17 01:33N 57°32' E 011°20'9 9.4
2014-Sep-17 00:33N 57°41' E 011°17'10 9.8
2014-Sep-16 23:34N 57°51' E 011°12'1010.2
2014-Sep-16 22:33N 58°00' E 011°07'5210.3
2014-Sep-16 17:32N 58°50' E 010°42'1010.6
2014-Sep-16 16:33N 59°00' E 010°35'10 9.6
2014-Sep-16 15:33N 59°10' E 010°36'1110.6
2014-Sep-16 14:33N 59°20' E 010°34'1110.6
2014-Sep-16 13:31N 59°30' E 010°26'10 9.5
2014-Sep-16 12:27N 59°40' E 010°23'1 0.0
2014-Sep-15 03:21N 59°41' E 010°22'6 8.1
2014-Sep-15 02:33N 59°35' E 010°26'9 8.6
2014-Sep-15 01:33N 59°27' E 010°31'9 9.0
2014-Sep-15 00:33N 59°18' E 010°36'9 9.2
2014-Sep-14 23:34N 59°09' E 010°39'9 9.1
2014-Sep-14 22:34N 59°01' E 010°35'10 9.6
2014-Sep-14 21:33N 58°52' E 010°25'227 8.4
2014-Sep-13 18:33N 55°40' E 006°41'8 7.8
2014-Sep-13 17:33N 55°34' E 006°34'8 7.7
2014-Sep-13 16:33N 55°27' E 006°27'8 8.3
2014-Sep-13 15:33N 55°20' E 006°18'8 8.4
2014-Sep-13 14:33N 55°13' E 006°11'8 8.4
2014-Sep-13 13:33N 55°06' E 006°03'61 8.4
2014-Sep-13 06:21N 54°15' E 005°07'8 8.6
2014-Sep-13 05:28N 54°08' E 005°00'7 8.1
2014-Sep-13 04:33N 54°01' E 004°57'8 7.5
2014-Sep-13 03:27N 53°53' E 004°55'7 7.4
2014-Sep-13 02:33N 53°46' E 004°53'38 7.5
2014-Sep-12 21:25N 53°10' E 004°31'9 8.8
2014-Sep-12 20:25N 53°03' E 004°24'8 8.7
2014-Sep-12 19:30N 52°55' E 004°18'9 9.2
2014-Sep-12 18:33N 52°48' E 004°12'9 9.0
2014-Sep-12 17:33N 52°40' E 004°04'10 9.6
2014-Sep-12 16:32N 52°32' E 003°55'1310.5
2014-Sep-12 15:18N 52°19' E 003°52'8 9.8
2014-Sep-12 14:28N 52°11' E 003°54'8 8.9
2014-Sep-12 13:33N 52°03' E 003°54'1010.0
2014-Sep-12 12:33N 51°58' E 004°08'1110.6
2014-Sep-12 11:33N 51°54' E 004°24'1 1.0
2014-Sep-12 10:33N 51°55' E 004°25'0 0.0
2014-Sep-12 09:24N 51°55' E 004°25'0 0.0
2014-Sep-12 08:27N 51°55' E 004°25'0 0.0
2014-Sep-12 07:30N 51°55' E 004°25'0 0.0
2014-Sep-12 06:09N 51°55' E 004°25'0 0.1
2014-Sep-12 05:33N 51°55' E 004°25'0 0.0
2014-Sep-12 04:12N 51°55' E 004°25'0 0.0
2014-Sep-12 03:30N 51°55' E 004°25'0 0.0
2014-Sep-12 02:33N 51°55' E 004°25'0 0.0
2014-Sep-12 01:33N 51°55' E 004°25'0 0.0
2014-Sep-12 00:33N 51°55' E 004°25'0 0.0
2014-Sep-11 23:33N 51°55' E 004°25'0 0.0
2014-Sep-11 22:33N 51°55' E 004°25'0 0.0
2014-Sep-11 21:33N 51°55' E 004°25'0 0.0
2014-Sep-11 20:27N 51°55' E 004°25'0 0.0
2014-Sep-11 19:27N 51°55' E 004°25'0 0.0
2014-Sep-11 18:27N 51°55' E 004°25'0 0.0
2014-Sep-11 17:33N 51°55' E 004°25'  
Track history (hours):
 
Tides and Currents Weather Stations Pressure Air Temp Water Temp Dewpoint Dewpoint Depression Visibility Wind Speed Wind Dir Waves Ship Positions

Zeus

Last reported at 2014-Sep-21 17:32 UTC. Time now 2014-Sep-21 22:10 UTC.
Position N 59°28' E 005°13'.

Length 90 m; draft 3.8 m.

Type: Cargo ship. MMSI: 304011025.

Date/timePositionNaut miles runAvg speedWind from/ knotsBaromVisibWave heightAir tempDewpointWater temp
2014-Sep-21 17:32N 59°28' E 005°13'10 9.6
2014-Sep-21 16:33N 59°19' E 005°20'8 7.8
2014-Sep-21 15:33N 59°11' E 005°21'5 5.3
2014-Sep-21 14:33N 59°06' E 005°22'5 5.5
2014-Sep-21 13:33N 59°03' E 005°13'4 4.1
2014-Sep-21 12:33N 58°59' E 005°11'4 4.1
2014-Sep-21 11:33N 58°55' E 005°11'4 3.8
2014-Sep-21 10:33N 58°51' E 005°12'5 4.5
2014-Sep-21 09:33N 58°46' E 005°13'41 4.4
2014-Sep-21 00:19N 58°11' E 005°51'5 6.3
2014-Sep-20 23:33N 58°07' E 005°57'6 5.7
2014-Sep-20 22:33N 58°03' E 006°04'115 8.0
2014-Sep-20 08:10N 57°48' E 009°39'6 9.3
2014-Sep-20 07:33N 57°48' E 009°49'1010.0
2014-Sep-20 06:33N 57°48' E 010°08'1010.5
2014-Sep-20 05:33N 57°48' E 010°28'10 9.6
2014-Sep-20 04:33N 57°48' E 010°46'9 8.7
2014-Sep-20 03:33N 57°43' E 010°58'8 8.4
2014-Sep-20 02:33N 57°37' E 011°09'9 8.8
2014-Sep-20 01:33N 57°31' E 011°21'9 8.8
2014-Sep-20 00:33N 57°23' E 011°30'9 9.4
2014-Sep-19 23:33N 57°15' E 011°36'9 9.1
2014-Sep-19 22:33N 57°06' E 011°42'9 9.0
2014-Sep-19 21:32N 56°57' E 011°47'9 8.7
2014-Sep-19 20:33N 56°49' E 011°53'8 8.4
2014-Sep-19 19:33N 56°42' E 011°58'8 8.2
2014-Sep-19 18:33N 56°33' E 012°00'8 8.2
2014-Sep-19 17:33N 56°25' E 012°03'7 7.5
2014-Sep-19 16:34N 56°18' E 012°06'8 7.9
2014-Sep-19 15:33N 56°13' E 012°18'8 8.0
2014-Sep-19 14:33N 56°09' E 012°29'9 8.6
2014-Sep-19 13:33N 56°03' E 012°40'9 9.0
2014-Sep-19 12:33N 55°54' E 012°45'10 9.8
2014-Sep-19 11:33N 55°44' E 012°41'9 9.2
2014-Sep-19 10:33N 55°35' E 012°42'9 9.1
2014-Sep-19 09:34N 55°26' E 012°42'9 8.6
2014-Sep-19 08:33N 55°18' E 012°45'10 9.7
2014-Sep-19 07:33N 55°12' E 012°59'1010.0
2014-Sep-19 06:33N 55°05' E 013°11'1010.0
2014-Sep-19 05:33N 54°57' E 013°22'10 9.8
2014-Sep-19 04:33N 54°49' E 013°32'10 9.8
2014-Sep-19 03:33N 54°40' E 013°40'1010.1
2014-Sep-19 02:33N 54°31' E 013°48'1010.1
2014-Sep-19 01:34N 54°23' E 013°56'1010.1
2014-Sep-19 00:33N 54°13' E 014°04'1010.0
2014-Sep-18 23:33N 54°04' E 014°11'9 9.2
2014-Sep-18 22:33N 53°56' E 014°17'6 6.1
2014-Sep-18 21:33N 53°50' E 014°19'10 9.8
2014-Sep-18 20:33N 53°42' E 014°29'9 9.5
2014-Sep-18 19:33N 53°33' E 014°36'5 4.6
2014-Sep-18 18:31N 53°29' E 014°37'0 0.0
2014-Sep-18 17:31N 53°29' E 014°37'0 0.0
2014-Sep-18 16:31N 53°29' E 014°37'0 0.0
2014-Sep-18 15:31N 53°29' E 014°37'0 0.0
2014-Sep-18 14:31N 53°29' E 014°37'0 0.0
2014-Sep-18 13:31N 53°29' E 014°37'0 0.0
2014-Sep-18 12:31N 53°29' E 014°37'0 0.0
2014-Sep-18 11:31N 53°29' E 014°37'0 0.0
2014-Sep-18 10:31N 53°29' E 014°37'0 0.0
2014-Sep-18 09:31N 53°29' E 014°37'0 0.0
2014-Sep-18 08:31N 53°29' E 014°37'0 0.0
2014-Sep-18 07:31N 53°29' E 014°37'4 4.2
2014-Sep-18 06:33N 53°33' E 014°37'9 8.9
2014-Sep-18 05:33N 53°41' E 014°31'1010.1
2014-Sep-18 04:33N 53°49' E 014°20'6 6.4
2014-Sep-18 03:33N 53°54' E 014°16'9 8.6
2014-Sep-18 02:33N 54°03' E 014°13'1010.4
2014-Sep-18 01:33N 54°12' E 014°04'1010.3
2014-Sep-18 00:33N 54°21' E 013°56'1410.3
2014-Sep-17 23:10N 54°34' E 013°44'710.2
2014-Sep-17 22:29N 54°40' E 013°38'1010.4
2014-Sep-17 21:33N 54°48' E 013°29'1010.4
2014-Sep-17 20:33N 54°57' E 013°20'1110.2
2014-Sep-17 19:32N 55°05' E 013°08'11 9.9
2014-Sep-17 18:25N 55°13' E 012°54'8 9.7
2014-Sep-17 17:33N 55°17' E 012°42'9 9.1
2014-Sep-17 16:33N 55°26' E 012°39'10 9.6
2014-Sep-17 15:33N 55°35' E 012°42'8 7.6
2014-Sep-17 14:33N 55°43' E 012°41'9 9.5
2014-Sep-17 13:33N 55°52' E 012°39'9 9.3
2014-Sep-17 12:33N 56°02' E 012°38'7 7.1
2014-Sep-17 11:33N 56°07' E 012°30'10 9.6
2014-Sep-17 10:33N 56°12' E 012°16'1010.1
2014-Sep-17 09:33N 56°19' E 012°02'1110.1
2014-Sep-17 08:25N 56°30' E 011°58'9 9.6
2014-Sep-17 07:31N 56°39' E 011°55'9 9.3
2014-Sep-17 06:32N 56°47' E 011°50'10 9.8
2014-Sep-17 05:33N 56°57' E 011°44'9 9.4
2014-Sep-17 04:33N 57°05' E 011°37'9 9.3
2014-Sep-17 03:33N 57°14' E 011°31'10 9.7
2014-Sep-17 02:33N 57°23' E 011°25'9 9.3
2014-Sep-17 01:33N 57°32' E 011°20'9 9.4
2014-Sep-17 00:33N 57°41' E 011°17'10 9.8
2014-Sep-16 23:34N 57°51' E 011°12'1010.2
2014-Sep-16 22:33N 58°00' E 011°07'5210.3
2014-Sep-16 17:32N 58°50' E 010°42'1010.6
2014-Sep-16 16:33N 59°00' E 010°35'10 9.6
2014-Sep-16 15:33N 59°10' E 010°36'1110.6
2014-Sep-16 14:33N 59°20' E 010°34'1110.6
2014-Sep-16 13:31N 59°30' E 010°26'10 9.5
2014-Sep-16 12:27N 59°40' E 010°23'1 0.0
2014-Sep-15 03:21N 59°41' E 010°22'6 8.1
2014-Sep-15 02:33N 59°35' E 010°26'9 8.6
2014-Sep-15 01:33N 59°27' E 010°31'9 9.0
2014-Sep-15 00:33N 59°18' E 010°36'9 9.2
2014-Sep-14 23:34N 59°09' E 010°39'9 9.1
2014-Sep-14 22:34N 59°01' E 010°35'10 9.6
2014-Sep-14 21:33N 58°52' E 010°25'227 8.4
2014-Sep-13 18:33N 55°40' E 006°41'8 7.8
2014-Sep-13 17:33N 55°34' E 006°34'8 7.7
2014-Sep-13 16:33N 55°27' E 006°27'8 8.3
2014-Sep-13 15:33N 55°20' E 006°18'8 8.4
2014-Sep-13 14:33N 55°13' E 006°11'8 8.4
2014-Sep-13 13:33N 55°06' E 006°03'61 8.4
2014-Sep-13 06:21N 54°15' E 005°07'8 8.6
2014-Sep-13 05:28N 54°08' E 005°00'7 8.1
2014-Sep-13 04:33N 54°01' E 004°57'8 7.5
2014-Sep-13 03:27N 53°53' E 004°55'7 7.4
2014-Sep-13 02:33N 53°46' E 004°53'38 7.5
2014-Sep-12 21:25N 53°10' E 004°31'9 8.8
2014-Sep-12 20:25N 53°03' E 004°24'8 8.7
2014-Sep-12 19:30N 52°55' E 004°18'9 9.2
2014-Sep-12 18:33N 52°48' E 004°12'9 9.0
2014-Sep-12 17:33N 52°40' E 004°04'10 9.6
2014-Sep-12 16:32N 52°32' E 003°55'1310.5
2014-Sep-12 15:18N 52°19' E 003°52'8 9.8
2014-Sep-12 14:28N 52°11' E 003°54'8 8.9
2014-Sep-12 13:33N 52°03' E 003°54'1010.0
2014-Sep-12 12:33N 51°58' E 004°08'1110.6
2014-Sep-12 11:33N 51°54' E 004°24'1 1.0
2014-Sep-12 10:33N 51°55' E 004°25'0 0.0
2014-Sep-12 09:24N 51°55' E 004°25'0 0.0
2014-Sep-12 08:27N 51°55' E 004°25'0 0.0
2014-Sep-12 07:30N 51°55' E 004°25'0 0.0
2014-Sep-12 06:09N 51°55' E 004°25'0 0.1
2014-Sep-12 05:33N 51°55' E 004°25'0 0.0
2014-Sep-12 04:12N 51°55' E 004°25'0 0.0
2014-Sep-12 03:30N 51°55' E 004°25'0 0.0
2014-Sep-12 02:33N 51°55' E 004°25'0 0.0
2014-Sep-12 01:33N 51°55' E 004°25'0 0.0
2014-Sep-12 00:33N 51°55' E 004°25'0 0.0
2014-Sep-11 23:33N 51°55' E 004°25'0 0.0
2014-Sep-11 22:33N 51°55' E 004°25'0 0.0
2014-Sep-11 21:33N 51°55' E 004°25'0 0.0
2014-Sep-11 20:27N 51°55' E 004°25'0 0.0
2014-Sep-11 19:27N 51°55' E 004°25'0 0.0
2014-Sep-11 18:27N 51°55' E 004°25'0 0.0
2014-Sep-11 17:33N 51°55' E 004°25'  

Dump ship's entire track history